createdAt,value
2018-10-11T00:00:58.722Z,14.70
2018-10-11T00:03:26.819Z,14.70
2018-10-11T00:05:54.966Z,14.70
2018-10-11T00:08:23.079Z,14.70
2018-10-11T00:10:51.385Z,14.70
2018-10-11T00:13:19.503Z,14.70
2018-10-11T00:15:47.622Z,14.70
2018-10-11T00:18:15.730Z,14.70
2018-10-11T00:20:43.854Z,14.70
2018-10-11T00:23:11.969Z,14.70
2018-10-11T00:25:40.090Z,14.70
2018-10-11T00:28:08.238Z,14.60
2018-10-11T00:30:36.456Z,14.60
2018-10-11T00:33:04.557Z,14.60
2018-10-11T00:35:32.682Z,14.60
2018-10-11T00:38:00.788Z,14.60
2018-10-11T00:40:28.930Z,14.50
2018-10-11T00:42:57.047Z,14.50
2018-10-11T00:45:25.170Z,14.50
2018-10-11T00:47:53.438Z,14.40
2018-10-11T00:50:21.570Z,14.40
2018-10-11T00:52:49.693Z,14.30
2018-10-11T00:55:17.811Z,14.30
2018-10-11T00:57:45.943Z,14.20
2018-10-11T01:00:14.062Z,14.20
2018-10-11T01:02:42.218Z,14.10
2018-10-11T01:05:10.338Z,14.10
2018-10-11T01:07:38.466Z,14.10
2018-10-11T01:10:06.608Z,14.10
2018-10-11T01:12:34.732Z,14.00
2018-10-11T01:15:02.861Z,14.00
2018-10-11T01:17:30.994Z,13.90
2018-10-11T01:19:59.153Z,13.90
2018-10-11T01:22:27.262Z,13.90
2018-10-11T01:24:55.393Z,13.80
2018-10-11T01:27:23.527Z,13.80
2018-10-11T01:29:51.763Z,13.80
2018-10-11T01:32:19.774Z,13.80
2018-10-11T01:34:47.899Z,13.80
2018-10-11T01:37:16.038Z,13.80
2018-10-11T01:39:44.149Z,13.70
2018-10-11T01:42:12.372Z,13.70
2018-10-11T01:44:40.711Z,13.70
2018-10-11T01:47:08.999Z,13.60
2018-10-11T01:49:37.138Z,13.70
2018-10-11T01:52:05.258Z,13.60
2018-10-11T01:54:33.402Z,13.60
2018-10-11T01:57:01.534Z,13.60
2018-10-11T01:59:29.653Z,13.60
2018-10-11T02:01:57.793Z,13.60
2018-10-11T02:04:25.897Z,13.50
2018-10-11T02:06:54.018Z,13.60
2018-10-11T02:09:22.147Z,13.50
2018-10-11T02:11:50.262Z,13.50
2018-10-11T02:14:18.407Z,13.40
2018-10-11T02:16:46.529Z,13.30
2018-10-11T02:19:14.731Z,13.30
2018-10-11T02:21:42.837Z,13.20
2018-10-11T02:24:11.457Z,13.20
2018-10-11T02:26:39.586Z,13.20
2018-10-11T02:29:07.820Z,13.20
2018-10-11T02:31:35.947Z,13.30
2018-10-11T02:34:04.073Z,13.30
2018-10-11T02:36:32.198Z,13.30
2018-10-11T02:39:00.406Z,13.40
2018-10-11T02:41:28.526Z,13.40
2018-10-11T02:43:56.653Z,13.40
2018-10-11T02:46:24.771Z,13.30
2018-10-11T02:48:52.901Z,13.20
2018-10-11T02:51:21.049Z,13.20
2018-10-11T02:53:49.190Z,13.20
2018-10-11T02:56:19.667Z,13.10
2018-10-11T02:58:59.245Z,13.10
2018-10-11T03:01:27.382Z,13.10
2018-10-11T03:04:01.331Z,13.10
2018-10-11T03:06:29.450Z,13.10
2018-10-11T03:08:57.593Z,13.20
2018-10-11T03:11:25.726Z,13.20
2018-10-11T03:13:53.834Z,13.10
2018-10-11T03:16:21.946Z,13.10
2018-10-11T03:18:50.054Z,13.10
2018-10-11T03:21:18.189Z,12.90
2018-10-11T03:23:46.301Z,12.90
2018-10-11T03:26:14.422Z,12.90
2018-10-11T03:28:42.530Z,12.90
2018-10-11T03:31:10.666Z,12.90
2018-10-11T03:33:38.781Z,12.80
2018-10-11T03:36:07.067Z,12.90
2018-10-11T03:38:35.210Z,12.80
2018-10-11T03:41:03.331Z,12.80
2018-10-11T03:43:31.446Z,12.80
2018-10-11T03:45:59.569Z,12.80
2018-10-11T03:48:27.678Z,12.80
2018-10-11T03:50:55.834Z,12.80
2018-10-11T03:53:23.957Z,12.80
2018-10-11T03:55:52.080Z,12.70
2018-10-11T03:58:20.233Z,12.80
2018-10-11T04:00:48.367Z,12.80
2018-10-11T04:03:16.477Z,12.80
2018-10-11T04:05:44.598Z,12.70
2018-10-11T04:08:12.730Z,12.70
2018-10-11T04:10:40.869Z,12.70
2018-10-11T04:13:08.990Z,12.70
2018-10-11T04:15:37.193Z,12.70
2018-10-11T04:18:05.250Z,12.80
2018-10-11T04:20:33.365Z,12.80
2018-10-11T04:23:01.497Z,12.90
2018-10-11T04:25:29.622Z,12.80
2018-10-11T04:27:57.758Z,12.80
2018-10-11T04:30:26.222Z,12.80
2018-10-11T04:32:54.706Z,12.70
2018-10-11T04:35:22.824Z,12.70
2018-10-11T04:37:50.953Z,12.60
2018-10-11T04:40:19.086Z,12.60
2018-10-11T04:42:47.244Z,12.60
2018-10-11T04:45:15.360Z,12.60
2018-10-11T04:47:43.489Z,12.60
2018-10-11T04:50:11.609Z,12.60
2018-10-11T04:52:39.777Z,12.40
2018-10-11T04:55:08.022Z,12.40
2018-10-11T04:57:36.161Z,12.40
2018-10-11T05:00:04.281Z,12.40
2018-10-11T05:02:32.405Z,12.40
2018-10-11T05:05:00.525Z,12.50
2018-10-11T05:07:28.662Z,12.50
2018-10-11T05:09:56.789Z,12.50
2018-10-11T05:12:24.930Z,12.40
2018-10-11T05:14:53.218Z,12.40
2018-10-11T05:17:21.410Z,12.40
2018-10-11T05:19:49.474Z,12.40
2018-10-11T05:22:17.601Z,12.30
2018-10-11T05:24:45.725Z,12.30
2018-10-11T05:27:13.860Z,12.30
2018-10-11T05:29:42.174Z,12.30
2018-10-11T05:32:10.308Z,12.20
2018-10-11T05:34:38.437Z,12.00
2018-10-11T05:37:06.710Z,11.70
2018-10-11T05:39:34.846Z,11.60
2018-10-11T05:42:03.170Z,11.70
